Double Springs, Alabama
Current Conditions -  °F | °C
As of 1:56 AM on Monday 26 Jan 2015 (Local Time) from K1M4 Reporting Station
NA  
Wind Chill: 33°   Ceiling: NA
Heat Index: 40°   Visibility: 10mi
Dew Point: 37°   Wind: 13mph
Humidity: 89%   Direction: 320°NW
Pressure: 29.87"   Gusts: 17mph
Location:  34.15°N, 87.4°W
Report Text: K1M4 260756Z AUTO 32011G15KT 10SM 04/03 A2987 RMK AO2 T00440027 SLP129 $
Loading
Personal Weather Stations






























Interactive Weather Map New forecast layout! Learn more

10-Day Weather Forecast

Advertisements
Track Severe Weather on mobile